Time;durP1;ratioP1;P1;durP2;ratioP2;P2;SDS_P1;SDS_P2;PMS_P1;PMS_P2;Temp;Humidity;BMP_temperature;BMP_pressure;BME280_temperature;BME280_humidity;BME280_pressure;Samples;Min_cycle;Max_cycle;Signal;HPM_P1;HPM_P2
2022/01/27 00:05:32;;;;;;;45.42;27.80;;;;;;;5.13;67.11;102755.75;5113536;28;20036;-71
2022/01/27 00:10:53;;;;;;;44.00;27.25;;;;;;;5.13;66.82;102744.72;5094671;28;20036;-70
2022/01/27 00:13:24;;;;;;;44.35;28.58;;;;;;;5.14;66.88;102738.19;5094151;28;20039;-70
2022/01/27 00:15:59;;;;;;;47.80;28.63;;;;;;;5.13;66.75;102732.88;5096848;28;20060;-70
2022/01/27 00:18:24;;;;;;;45.47;28.17;;;;;;;5.10;66.95;102720.28;5093324;28;20496;-70
2022/01/27 00:20:49;;;;;;;47.67;29.00;;;;;;;5.07;66.95;102698.66;5094162;28;20035;-70
2022/01/27 00:23:15;;;;;;;44.20;27.75;;;;;;;5.06;67.19;102705.16;5101537;28;20513;-70
2022/01/27 00:25:41;;;;;;;46.95;27.48;;;;;;;5.05;67.02;102705.34;5093095;28;20039;-70
2022/01/27 00:28:06;;;;;;;46.85;27.60;;;;;;;5.05;67.08;102700.69;5109625;28;20036;-70
2022/01/27 00:30:37;;;;;;;46.65;28.23;;;;;;;5.02;67.20;102695.53;5093853;28;20059;-70
2022/01/27 00:33:03;;;;;;;42.85;27.50;;;;;;;5.07;67.22;102701.41;5107888;28;20040;-70
2022/01/27 00:35:32;;;;;;;43.85;27.65;;;;;;;5.04;67.18;102710.00;5105840;28;20024;-70
2022/01/27 00:37:58;;;;;;;45.30;27.88;;;;;;;5.04;66.92;102712.75;5099684;28;20128;-70
2022/01/27 00:40:23;;;;;;;43.28;26.70;;;;;;;5.05;67.24;102708.94;5108535;28;20056;-70
2022/01/27 00:42:49;;;;;;;47.22;28.63;;;;;;;5.08;67.51;102708.63;5111085;28;20039;-70
2022/01/27 00:45:14;;;;;;;42.67;27.73;;;;;;;5.09;67.14;102698.47;5092556;28;20020;-70
2022/01/27 00:47:39;;;;;;;42.38;26.80;;;;;;;5.12;66.89;102709.13;5092697;28;20552;-70
2022/01/27 00:50:05;;;;;;;43.97;27.90;;;;;;;5.14;67.13;102691.41;5093373;28;20043;-70
2022/01/27 00:52:41;;;;;;;43.95;26.85;;;;;;;5.13;67.26;102686.06;5107328;28;20112;-70
2022/01/27 00:55:09;;;;;;;45.20;27.63;;;;;;;5.13;67.13;102678.66;5109087;28;20605;-69
2022/01/27 00:57:48;;;;;;;45.10;28.00;;;;;;;5.15;67.41;102686.78;5095280;28;20028;-70
2022/01/27 01:00:17;;;;;;;43.10;26.55;;;;;;;5.17;67.09;102674.53;5092588;28;20085;-70
2022/01/27 01:02:52;;;;;;;40.22;26.20;;;;;;;5.13;67.06;102667.66;5092204;28;20027;-70
2022/01/27 01:08:40;;;;;;;42.17;26.77;;;;;;;5.22;66.96;102675.91;5098078;28;20120;-70
2022/01/27 01:11:29;;;;;;;41.53;26.08;;;;;;;5.22;66.91;102675.91;5109239;28;20039;-70
2022/01/27 01:29:21;;;;;;;40.83;26.45;;;;;;;5.16;67.37;102659.06;5096812;28;20046;-70
2022/01/27 01:32:55;;;;;;;40.87;24.63;;;;;;;5.17;66.86;102647.00;5095783;28;20028;-70
2022/01/27 01:35:29;;;;;;;39.22;25.40;;;;;;;5.12;67.30;102640.31;5098869;28;20035;-70
2022/01/27 01:37:58;;;;;;;42.15;25.92;;;;;;;5.15;67.34;102646.34;5110666;28;20020;-70
2022/01/27 01:40:24;;;;;;;40.92;25.13;;;;;;;5.18;67.50;102637.72;5096015;28;20115;-70
2022/01/27 01:42:49;;;;;;;42.33;25.40;;;;;;;5.21;67.33;102630.16;5093012;28;20233;-69
2022/01/27 01:45:17;;;;;;;42.33;26.23;;;;;;;5.19;67.25;102605.56;5094293;28;20379;-69
2022/01/27 01:47:43;;;;;;;38.05;24.85;;;;;;;5.20;67.25;102620.19;5094371;28;20497;-69
2022/01/27 01:50:10;;;;;;;42.35;26.33;;;;;;;5.22;67.23;102604.34;5105498;28;20050;-69
2022/01/27 01:52:36;;;;;;;38.17;25.30;;;;;;;5.21;67.16;102613.63;5091938;28;20032;-69
2022/01/27 01:55:04;;;;;;;38.65;25.30;;;;;;;5.13;67.39;102612.63;5091073;28;20070;-69
2022/01/27 01:57:29;;;;;;;45.28;27.55;;;;;;;5.06;67.93;102621.72;5096691;28;20584;-69
2022/01/27 01:59:55;;;;;;;38.70;26.33;;;;;;;5.08;67.48;102616.94;5105312;28;20031;-70
2022/01/27 02:02:20;;;;;;;41.70;26.15;;;;;;;5.08;67.67;102608.69;5092093;28;20379;-69
2022/01/27 02:04:45;;;;;;;42.28;25.67;;;;;;;5.06;67.75;102622.59;5091555;28;20028;-69
2022/01/27 02:07:31;;;;;;;42.83;26.35;;;;;;;5.13;67.84;102611.75;5097579;28;20028;-69
2022/01/27 02:18:09;;;;;;;37.17;24.80;;;;;;;5.28;67.28;102578.88;5103823;28;20117;-69
2022/01/27 02:20:37;;;;;;;40.22;26.45;;;;;;;5.25;67.22;102560.81;5106055;28;20019;-69
2022/01/27 02:23:05;;;;;;;38.90;25.05;;;;;;;5.24;67.26;102563.75;5105346;28;20020;-69
2022/01/27 02:25:30;;;;;;;41.20;25.42;;;;;;;5.26;67.28;102556.16;5110711;28;20027;-69
2022/01/27 02:27:57;;;;;;;41.38;25.20;;;;;;;5.27;67.34;102568.91;5102928;28;20023;-69
2022/01/27 02:30:23;;;;;;;38.05;24.48;;;;;;;5.26;67.35;102568.00;5099832;28;20032;-69
2022/01/27 02:32:53;;;;;;;38.45;24.55;;;;;;;5.29;67.14;102575.94;5106249;28;20132;-69
2022/01/27 02:35:21;;;;;;;38.85;24.98;;;;;;;5.29;67.52;102573.19;5109109;28;20043;-69
2022/01/27 02:37:47;;;;;;;38.13;25.00;;;;;;;5.34;67.59;102575.41;5099962;28;20056;-69
2022/01/27 02:40:23;;;;;;;39.50;24.02;;;;;;;5.35;67.44;102571.63;5100028;28;20058;-69
2022/01/27 02:42:48;;;;;;;39.85;24.80;;;;;;;5.34;67.67;102564.38;5107974;28;20032;-69
2022/01/27 02:45:18;;;;;;;42.72;25.70;;;;;;;5.34;67.23;102564.38;5109903;28;20029;-69
2022/01/27 02:47:43;;;;;;;41.15;25.13;;;;;;;5.33;67.62;102559.91;5110429;28;20032;-69
2022/01/27 02:50:08;;;;;;;37.10;24.60;;;;;;;5.32;67.66;102550.81;5105382;28;20036;-69
2022/01/27 02:52:34;;;;;;;36.00;23.25;;;;;;;5.34;67.76;102542.34;5089453;28;20476;-71
2022/01/27 02:54:59;;;;;;;43.72;25.30;;;;;;;5.32;67.56;102559.06;5105447;28;20042;-69
2022/01/27 02:57:25;;;;;;;41.13;23.52;;;;;;;5.36;67.67;102552.16;5096767;28;20032;-69
2022/01/27 02:59:51;;;;;;;38.33;24.15;;;;;;;5.34;67.85;102537.69;5101559;28;20112;-69
2022/01/27 03:02:18;;;;;;;36.55;24.05;;;;;;;5.38;68.20;102539.09;5113217;28;20024;-69
2022/01/27 03:04:43;;;;;;;36.10;23.08;;;;;;;5.37;67.82;102531.00;5094701;28;20027;-69
2022/01/27 03:07:08;;;;;;;41.03;25.15;;;;;;;5.35;67.85;102505.53;5110437;28;20039;-69
2022/01/27 03:09:34;;;;;;;38.65;23.85;;;;;;;5.35;67.91;102505.53;5114232;28;20027;-69
2022/01/27 03:12:03;;;;;;;38.40;23.73;;;;;;;5.30;68.21;102513.47;5101145;28;20032;-69
2022/01/27 03:14:29;;;;;;;38.67;23.38;;;;;;;5.28;68.29;102510.03;5096565;28;20440;-69
2022/01/27 03:16:57;;;;;;;34.13;22.42;;;;;;;5.28;68.18;102523.81;5109845;28;20019;-69
2022/01/27 03:19:23;;;;;;;36.75;23.42;;;;;;;5.24;68.38;102526.06;5111232;28;20036;-69
2022/01/27 03:21:49;;;;;;;36.92;23.95;;;;;;;5.24;68.51;102520.56;5114542;28;20030;-69
2022/01/27 03:24:14;;;;;;;45.92;25.58;;;;;;;5.21;68.45;102503.53;5113473;28;21587;-69
2022/01/27 03:26:41;;;;;;;42.28;24.70;;;;;;;5.17;68.76;102506.63;5113616;28;20080;-69
2022/01/27 03:29:06;;;;;;;35.67;22.55;;;;;;;5.21;68.55;102495.25;5105383;28;20433;-69
2022/01/27 03:31:32;;;;;;;34.45;22.30;;;;;;;5.25;68.48;102482.88;5100934;28;20103;-69
2022/01/27 03:33:57;;;;;;;39.88;23.75;;;;;;;5.24;68.79;102494.91;5102078;28;20034;-69
2022/01/27 03:36:25;;;;;;;37.15;23.08;;;;;;;5.29;68.70;102478.72;5114698;28;20106;-69
2022/01/27 03:38:50;;;;;;;37.08;24.08;;;;;;;5.25;68.66;102467.19;5113451;28;20042;-69
2022/01/27 03:41:20;;;;;;;39.80;24.15;;;;;;;5.23;68.43;102487.72;5098476;28;20028;-69
2022/01/27 03:43:46;;;;;;;38.65;24.38;;;;;;;5.23;69.20;102501.47;5098105;28;20024;-69
2022/01/27 03:46:11;;;;;;;41.90;24.05;;;;;;;5.24;68.94;102493.03;5106458;28;20032;-69
2022/01/27 03:48:37;;;;;;;36.78;22.88;;;;;;;5.27;68.86;102492.66;5097549;28;20035;-69
2022/01/27 03:51:03;;;;;;;37.00;23.33;;;;;;;5.30;68.29;102496.94;5101012;28;20042;-69
2022/01/27 03:53:29;;;;;;;39.90;23.30;;;;;;;5.30;68.62;102496.94;5114164;28;20024;-69
2022/01/27 03:55:54;;;;;;;36.85;22.35;;;;;;;5.28;69.23;102497.13;5109715;28;20058;-68
2022/01/27 03:58:20;;;;;;;40.70;23.30;;;;;;;5.28;69.08;102496.28;5110595;28;20040;-68
2022/01/27 04:00:45;;;;;;;35.75;23.15;;;;;;;5.29;69.23;102479.56;5097521;28;20704;-69
2022/01/27 04:03:13;;;;;;;37.25;21.75;;;;;;;5.23;69.44;102480.31;5094887;28;20410;-69
2022/01/27 04:05:42;;;;;;;41.78;22.65;;;;;;;5.23;69.39;102458.28;5109958;28;20493;-69
2022/01/27 04:08:10;;;;;;;39.38;22.27;;;;;;;5.21;69.47;102460.34;5108427;28;20043;-69
2022/01/27 04:10:36;;;;;;;39.25;22.95;;;;;;;5.17;70.06;102454.31;5103026;28;20118;-69
2022/01/27 04:13:04;;;;;;;41.30;22.98;;;;;;;5.13;69.60;102469.47;5093148;28;20024;-69
2022/01/27 04:15:29;;;;;;;36.63;22.92;;;;;;;5.14;70.06;102440.91;5093102;28;20165;-69
2022/01/27 04:17:55;;;;;;;36.38;21.63;;;;;;;5.22;70.00;102429.00;5093516;28;20020;-69
2022/01/27 04:20:20;;;;;;;38.80;22.17;;;;;;;5.29;69.80;102440.16;5100851;28;20024;-69
2022/01/27 04:22:46;;;;;;;37.05;21.50;;;;;;;5.32;69.83;102445.31;5113062;28;20360;-69
2022/01/27 04:25:13;;;;;;;37.22;21.92;;;;;;;5.34;69.09;102451.50;5101775;28;20500;-69
2022/01/27 04:27:42;;;;;;;40.05;21.73;;;;;;;5.33;69.54;102436.03;5094377;28;20031;-69
2022/01/27 04:30:15;;;;;;;36.00;21.58;;;;;;;5.33;69.62;102438.78;5100581;28;20031;-69
2022/01/27 04:32:45;;;;;;;35.65;20.83;;;;;;;5.34;69.72;102440.47;5112863;28;20034;-69
2022/01/27 04:35:15;;;;;;;36.30;21.63;;;;;;;5.37;69.73;102453.91;5103609;28;20030;-69
2022/01/27 04:37:51;;;;;;;37.17;22.23;;;;;;;5.36;69.87;102442.03;5096459;28;20399;-68
2022/01/27 04:40:17;;;;;;;35.90;21.70;;;;;;;5.37;69.49;102413.44;5103298;28;20610;-69
2022/01/27 04:43:22;;;;;;;34.35;20.20;;;;;;;5.41;69.41;102416.69;5095828;28;20053;-69
2022/01/27 04:45:44;;;;;;;36.53;21.75;;;;;;;5.40;69.47;102420.50;5102406;28;20043;-69
2022/01/27 04:48:14;;;;;;;40.55;21.75;;;;;;;5.42;69.20;102423.91;5093625;28;20035;-69
2022/01/27 04:50:40;;;;;;;38.80;21.27;;;;;;;5.38;69.37;102412.44;5094727;28;20035;-69
2022/01/27 04:53:09;;;;;;;33.13;20.23;;;;;;;5.37;69.64;102410.69;5105894;28;20042;-69
2022/01/27 04:55:34;;;;;;;37.38;20.98;;;;;;;5.37;69.66;102410.69;5109181;28;20053;-69
2022/01/27 04:58:11;;;;;;;35.05;21.38;;;;;;;5.39;69.63;102410.53;5111692;28;20126;-69
2022/01/27 05:00:36;;;;;;;35.67;21.05;;;;;;;5.37;69.53;102407.09;5107109;28;20044;-69
2022/01/27 05:03:11;;;;;;;34.13;20.48;;;;;;;5.33;69.85;102400.22;5112837;28;20034;-69
2022/01/27 05:05:38;;;;;;;32.50;20.35;;;;;;;5.35;69.62;102395.41;5097112;28;20024;-69
2022/01/27 05:08:04;;;;;;;35.15;21.30;;;;;;;5.35;69.71;102392.66;5104520;28;20034;-69
2022/01/27 05:10:33;;;;;;;33.58;20.15;;;;;;;5.36;69.85;102386.09;5111630;28;20043;-69
2022/01/27 05:13:07;;;;;;;33.83;20.52;;;;;;;5.36;69.83;102397.97;5108772;28;20031;-69
2022/01/27 05:15:34;;;;;;;32.88;20.58;;;;;;;5.36;69.62;102397.13;5112786;28;20532;-69
2022/01/27 05:17:59;;;;;;;36.85;21.33;;;;;;;5.38;69.90;102375.75;5106637;28;20058;-69
2022/01/27 05:20:24;;;;;;;35.78;21.02;;;;;;;5.35;69.79;102384.41;5110507;28;20032;-70
2022/01/27 05:22:50;;;;;;;37.83;20.83;;;;;;;5.35;69.79;102385.25;5111204;28;20023;-69
2022/01/27 05:25:15;;;;;;;34.60;20.05;;;;;;;5.32;69.83;102377.34;5109512;28;20481;-69
2022/01/27 05:27:40;;;;;;;35.35;19.98;;;;;;;5.35;69.82;102368.72;5100142;28;20690;-69
2022/01/27 05:30:06;;;;;;;37.25;21.08;;;;;;;5.39;70.04;102375.59;5103642;28;20024;-69
2022/01/27 05:32:34;;;;;;;35.67;20.90;;;;;;;5.39;70.19;102352.72;5111267;28;20458;-69
2022/01/27 05:34:59;;;;;;;39.28;21.48;;;;;;;5.35;70.44;102352.22;5105324;28;20180;-69
2022/01/27 05:37:24;;;;;;;36.03;21.15;;;;;;;5.34;70.24;102355.97;5104906;28;20130;-69
2022/01/27 05:39:50;;;;;;;39.13;20.40;;;;;;;5.36;70.15;102353.06;5111528;28;20027;-69
2022/01/27 05:42:15;;;;;;;38.30;21.30;;;;;;;5.38;69.98;102357.38;5109242;28;20110;-69
2022/01/27 05:44:40;;;;;;;40.53;21.08;;;;;;;5.39;70.20;102350.81;5108691;28;20036;-69
2022/01/27 05:47:06;;;;;;;39.75;21.58;;;;;;;5.45;70.23;102362.13;5103337;28;20034;-70
2022/01/27 05:49:31;;;;;;;37.72;21.77;;;;;;;5.46;70.36;102364.69;5112218;28;20079;-69
2022/01/27 05:51:56;;;;;;;35.35;20.80;;;;;;;5.45;70.37;102356.63;5104716;28;20020;-70
2022/01/27 05:54:22;;;;;;;35.83;21.23;;;;;;;5.44;70.32;102358.50;5110247;28;20463;-69
2022/01/27 05:56:47;;;;;;;35.08;21.63;;;;;;;5.44;70.06;102347.50;5107418;28;20048;-69
2022/01/27 05:59:12;;;;;;;38.50;21.70;;;;;;;5.40;70.84;102349.75;5110695;28;20028;-69
2022/01/27 06:01:39;;;;;;;35.38;20.50;;;;;;;5.39;70.64;102364.56;5103468;28;20044;-69
2022/01/27 06:04:04;;;;;;;38.05;21.10;;;;;;;5.40;71.08;102359.91;5101286;28;20033;-70
2022/01/27 06:06:29;;;;;;;36.40;21.23;;;;;;;5.37;71.23;102349.25;5109272;28;20061;-69
2022/01/27 06:08:55;;;;;;;36.00;21.52;;;;;;;5.39;70.99;102349.94;5104746;28;20028;-71
2022/01/27 06:11:20;;;;;;;39.15;20.73;;;;;;;5.40;71.18;102355.25;5095336;28;20077;-69
2022/01/27 06:13:45;;;;;;;40.17;21.77;;;;;;;5.39;70.90;102341.69;5091263;28;20744;-69
2022/01/27 06:16:12;;;;;;;36.65;20.30;;;;;;;5.40;71.23;102336.00;5093230;28;20040;-68
2022/01/27 06:18:38;;;;;;;38.65;21.10;;;;;;;5.37;71.79;102333.59;5097979;28;20030;-67
2022/01/27 06:21:06;;;;;;;38.42;22.50;;;;;;;5.41;71.64;102339.59;5098634;28;20467;-65
2022/01/27 06:23:31;;;;;;;34.20;21.15;;;;;;;5.44;71.59;102339.25;5110295;28;20076;-66
2022/01/27 06:26:01;;;;;;;37.40;22.42;;;;;;;5.44;71.35;102332.88;5102847;28;20027;-65
2022/01/27 06:28:26;;;;;;;35.22;21.77;;;;;;;5.46;72.07;102334.38;5104164;28;20418;-65
2022/01/27 06:30:52;;;;;;;36.95;21.58;;;;;;;5.46;72.21;102345.41;5098897;28;20028;-65
2022/01/27 06:33:17;;;;;;;38.05;21.83;;;;;;;5.46;72.49;102339.91;5103061;28;20059;-64
2022/01/27 06:35:42;;;;;;;38.38;23.08;;;;;;;5.50;72.26;102334.88;5107975;28;20024;-65
2022/01/27 06:38:08;;;;;;;40.47;21.65;;;;;;;5.51;72.53;102334.72;5093387;28;20024;-65
2022/01/27 06:40:34;;;;;;;42.10;22.50;;;;;;;5.50;72.39;102333.00;5101167;28;20032;-65
2022/01/27 06:42:59;;;;;;;36.67;21.75;;;;;;;5.46;73.07;102323.38;5101316;28;20839;-67
2022/01/27 06:45:24;;;;;;;39.47;22.40;;;;;;;5.46;72.90;102320.63;5106961;28;20069;-69
2022/01/27 06:47:50;;;;;;;39.70;22.75;;;;;;;5.51;72.43;102312.69;5107161;28;20073;-67
2022/01/27 06:50:15;;;;;;;42.05;23.23;;;;;;;5.53;72.84;102309.72;5107231;28;20459;-66
2022/01/27 06:52:41;;;;;;;41.55;23.40;;;;;;;5.53;73.19;102298.72;5106898;28;20058;-66
2022/01/27 06:55:11;;;;;;;41.13;23.15;;;;;;;5.54;73.17;102309.56;5106042;28;20046;-65
2022/01/27 06:57:37;;;;;;;41.05;22.75;;;;;;;5.48;73.60;102315.81;5096770;28;20036;-66
2022/01/27 07:00:05;;;;;;;41.15;23.38;;;;;;;5.48;73.38;102323.22;5108614;28;20031;-67
2022/01/27 07:02:30;;;;;;;38.97;22.23;;;;;;;5.47;73.45;102314.09;5104231;28;20118;-68
2022/01/27 07:04:56;;;;;;;42.00;24.02;;;;;;;5.45;72.90;102320.81;5103265;28;20463;-68
2022/01/27 07:07:22;;;;;;;41.83;22.73;;;;;;;5.50;73.44;102310.97;5105658;28;20031;-68
2022/01/27 07:09:47;;;;;;;42.05;23.13;;;;;;;5.51;73.46;102304.41;5104293;28;20557;-68
2022/01/27 07:12:12;;;;;;;42.90;24.17;;;;;;;5.47;73.48;102299.47;5101029;28;20051;-67
2022/01/27 07:14:38;;;;;;;44.33;25.08;;;;;;;5.48;73.30;102314.94;5098932;28;20386;-67
2022/01/27 07:17:04;;;;;;;43.53;23.67;;;;;;;5.49;73.44;102314.75;5106743;28;20098;-67
2022/01/27 07:19:29;;;;;;;41.95;22.88;;;;;;;5.46;73.64;102323.38;5101264;28;20123;-67
2022/01/27 07:21:54;;;;;;;44.58;22.80;;;;;;;5.45;73.86;102324.41;5105841;28;20142;-66
2022/01/27 07:24:20;;;;;;;43.50;23.05;;;;;;;5.55;73.27;102313.19;5106685;28;20389;-68
2022/01/27 07:26:45;;;;;;;42.38;24.20;;;;;;;5.56;73.53;102328.66;5100356;28;20028;-66
2022/01/27 07:29:10;;;;;;;47.65;23.73;;;;;;;5.53;73.91;102315.25;5112135;28;20024;-66
2022/01/27 07:31:36;;;;;;;40.90;23.25;;;;;;;5.53;73.67;102329.88;5109980;28;20494;-66
2022/01/27 07:34:01;;;;;;;41.78;23.60;;;;;;;5.54;73.58;102327.97;5112195;28;20077;-65
2022/01/27 07:36:28;;;;;;;45.83;24.67;;;;;;;5.49;73.99;102323.00;5119827;28;20021;-67
2022/01/27 07:38:53;;;;;;;43.05;22.77;;;;;;;5.52;73.43;102330.06;5113689;28;20142;-66
2022/01/27 07:41:19;;;;;;;45.33;23.88;;;;;;;5.56;73.40;102332.25;5109673;27;20110;-66
2022/01/27 07:43:45;;;;;;;42.92;23.45;;;;;;;5.53;73.93;102327.13;5104267;27;20030;-66
2022/01/27 07:46:11;;;;;;;44.97;24.27;;;;;;;5.53;73.98;102320.75;5104885;27;20402;-66
2022/01/27 07:48:37;;;;;;;48.13;24.20;;;;;;;5.58;73.99;102321.03;5132285;27;20405;-66
2022/01/27 07:51:03;;;;;;;43.42;22.98;;;;;;;5.60;73.79;102321.72;5118058;27;20034;-66
2022/01/27 07:53:29;;;;;;;39.72;22.65;;;;;;;5.59;74.52;102320.88;5111224;28;20024;-66
2022/01/27 07:55:54;;;;;;;43.70;24.45;;;;;;;5.60;74.65;102328.09;5103777;28;20031;-65
2022/01/27 07:58:20;;;;;;;44.85;24.65;;;;;;;5.63;75.01;102321.38;5102666;27;20035;-66
2022/01/27 08:00:45;;;;;;;47.75;25.40;;;;;;;5.63;75.30;102329.63;5107237;27;20467;-65
2022/01/27 08:03:10;;;;;;;44.00;24.45;;;;;;;5.66;75.52;102346.66;5098430;28;20036;-66
2022/01/27 08:05:36;;;;;;;43.22;24.67;;;;;;;5.65;76.10;102339.41;5100753;28;20118;-66
2022/01/27 08:08:01;;;;;;;46.72;25.70;;;;;;;5.62;76.36;102328.78;5102208;28;20122;-66
2022/01/27 08:10:26;;;;;;;42.35;25.10;;;;;;;5.58;77.03;102332.94;5113676;27;20043;-66
2022/01/27 08:12:52;;;;;;;47.58;25.58;;;;;;;5.61;77.24;102346.31;5095664;27;20471;-64
2022/01/27 08:15:22;;;;;;;42.63;25.63;;;;;;;5.63;77.13;102336.00;5109049;27;20038;-63
2022/01/27 08:17:48;;;;;;;49.05;26.20;;;;;;;5.55;78.22;102338.81;5105116;27;20036;-61
2022/01/27 08:20:13;;;;;;;50.83;26.55;;;;;;;5.56;77.87;102329.50;5102958;28;20035;-64
2022/01/27 08:22:39;;;;;;;51.38;27.15;;;;;;;5.54;78.43;102336.22;5110565;27;20028;-64
2022/01/27 08:25:06;;;;;;;47.63;26.60;;;;;;;5.61;77.80;102338.06;5108594;27;20519;-64
2022/01/27 08:27:32;;;;;;;49.08;26.33;;;;;;;5.59;78.51;102331.91;5113468;27;20355;-63
2022/01/27 08:30:03;;;;;;;45.88;25.00;;;;;;;5.60;78.44;102327.25;5115588;27;20102;-63
2022/01/27 08:32:45;;;;;;;46.58;26.65;;;;;;;5.58;78.45;102327.44;5119503;27;20027;-63
2022/01/27 08:35:12;;;;;;;46.00;26.10;;;;;;;5.57;78.79;102322.09;5106495;28;20036;-64
2022/01/27 08:37:38;;;;;;;47.95;26.15;;;;;;;5.61;78.63;102321.53;5110107;28;20464;-64
2022/01/27 08:40:05;;;;;;;50.58;26.45;;;;;;;5.62;78.31;102326.03;5109594;28;20031;-64
2022/01/27 08:42:30;;;;;;;46.40;26.50;;;;;;;5.62;78.83;102317.75;5110120;28;20035;-63
2022/01/27 08:44:55;;;;;;;50.58;27.77;;;;;;;5.65;78.62;102320.13;5108735;28;20085;-64
2022/01/27 08:47:21;;;;;;;52.22;28.05;;;;;;;5.66;78.92;102319.09;5111535;28;20036;-64
2022/01/27 08:49:47;;;;;;;50.78;27.00;;;;;;;5.66;78.96;102321.88;5110205;28;20406;-64
2022/01/27 08:52:12;;;;;;;49.25;26.75;;;;;;;5.67;79.17;102325.47;5106559;28;20046;-63
2022/01/27 08:54:38;;;;;;;46.53;26.60;;;;;;;5.69;79.25;102320.63;5110975;28;20073;-63
2022/01/27 08:57:03;;;;;;;48.38;27.08;;;;;;;5.71;79.03;102317.69;5110591;28;20036;-64
2022/01/27 08:59:29;;;;;;;47.05;26.65;;;;;;;5.72;79.48;102314.75;5101638;28;20486;-64
2022/01/27 09:01:54;;;;;;;50.95;27.45;;;;;;;5.74;79.05;102317.28;5110251;28;20086;-64
2022/01/27 09:04:19;;;;;;;48.22;27.33;;;;;;;5.75;79.55;102324.53;5110166;28;20130;-64
2022/01/27 09:06:45;;;;;;;46.67;27.17;;;;;;;5.78;79.21;102321.44;5111334;28;20463;-64
2022/01/27 09:09:10;;;;;;;46.10;26.48;;;;;;;5.79;79.21;102321.22;5109457;28;20042;-64
2022/01/27 09:11:35;;;;;;;49.03;27.67;;;;;;;5.81;79.49;102324.63;5111543;28;20031;-64
2022/01/27 09:14:03;;;;;;;46.17;27.00;;;;;;;5.81;79.94;102323.78;5106963;28;20043;-64
2022/01/27 09:16:30;;;;;;;47.03;27.25;;;;;;;5.81;80.33;102318.28;5111221;28;20028;-63
2022/01/27 09:18:58;;;;;;;43.45;26.92;;;;;;;5.84;80.13;102317.91;5107130;28;20048;-64
2022/01/27 09:21:24;;;;;;;46.00;27.05;;;;;;;5.88;80.33;102320.09;5110459;28;20394;-64
2022/01/27 09:23:50;;;;;;;48.85;27.55;;;;;;;5.91;80.24;102318.88;5110120;28;20028;-64
2022/01/27 09:26:51;;;;;;;42.58;26.45;;;;;;;5.88;79.86;102316.50;5107150;28;20051;-64
2022/01/27 09:29:08;;;;;;;47.75;27.23;;;;;;;5.83;80.90;102316.22;5104957;28;20044;-64
2022/01/27 09:31:34;;;;;;;44.80;27.38;;;;;;;5.87;80.38;102317.53;5110493;28;20023;-64
2022/01/27 09:33:59;;;;;;;48.90;27.23;;;;;;;5.90;80.36;102319.94;5108221;28;20020;-63
2022/01/27 09:36:25;;;;;;;41.30;26.60;;;;;;;5.90;80.98;102311.66;5109926;28;20032;-64
2022/01/27 09:38:50;;;;;;;44.22;27.30;;;;;;;5.94;80.64;102313.03;5109559;28;20043;-64
2022/01/27 09:41:19;;;;;;;43.80;26.60;;;;;;;5.96;80.98;102312.84;5110300;28;20107;-63
2022/01/27 09:43:46;;;;;;;38.97;25.02;;;;;;;5.96;80.50;102313.69;5109136;28;20496;-64
2022/01/27 09:46:13;;;;;;;44.70;25.55;;;;;;;5.95;80.89;102314.75;5107720;28;20028;-64
2022/01/27 09:48:43;;;;;;;42.25;25.90;;;;;;;5.93;81.33;102311.31;5109942;28;20115;-64
2022/01/27 09:51:37;;;;;;;40.47;25.50;;;;;;;5.95;81.18;102311.13;5110696;28;20463;-64
2022/01/27 09:53:56;;;;;;;36.50;24.67;;;;;;;6.00;81.09;102322.44;5109049;28;20064;-64
2022/01/27 09:56:24;;;;;;;35.58;25.00;;;;;;;6.03;81.02;102322.94;5110033;28;20051;-63
2022/01/27 09:58:49;;;;;;;34.25;23.27;;;;;;;6.06;80.67;102329.97;5107718;28;20541;-64
2022/01/27 10:01:15;;;;;;;34.55;24.17;;;;;;;6.06;81.59;102328.06;5108227;28;20107;-64
2022/01/27 10:03:56;;;;;;;35.90;22.85;;;;;;;6.10;80.51;102326.66;5106570;28;20043;-64
2022/01/27 10:06:30;;;;;;;36.97;23.30;;;;;;;6.11;80.64;102333.03;5107726;28;20535;-64
2022/01/27 10:09:20;;;;;;;32.13;21.88;;;;;;;6.13;80.79;102334.56;5109377;28;20535;-64
2022/01/27 10:11:48;;;;;;;36.63;24.17;;;;;;;6.15;80.84;102334.34;5107675;28;20073;-64
2022/01/27 10:14:21;;;;;;;32.85;23.10;;;;;;;6.18;81.22;102342.25;5108986;28;20023;-64
2022/01/27 10:16:49;;;;;;;32.58;22.60;;;;;;;6.18;81.10;102330.38;5106695;28;20076;-64
2022/01/27 10:19:15;;;;;;;34.65;24.15;;;;;;;6.18;81.48;102320.22;5108292;28;20501;-64
2022/01/27 10:21:40;;;;;;;32.10;22.00;;;;;;;6.17;81.98;102323.13;5106568;28;20023;-64
2022/01/27 10:24:22;;;;;;;31.63;23.05;;;;;;;6.22;81.37;102337.22;5106361;28;20031;-63
2022/01/27 10:27:15;;;;;;;30.98;22.02;;;;;;;6.22;81.66;102334.47;5109352;28;20656;-64
2022/01/27 10:29:50;;;;;;;32.05;22.10;;;;;;;6.21;81.83;102332.75;5107018;28;20042;-64
2022/01/27 10:32:15;;;;;;;29.40;21.48;;;;;;;6.19;81.80;102321.06;5110351;28;20020;-64
2022/01/27 10:34:54;;;;;;;29.98;21.98;;;;;;;6.23;81.51;102327.91;5110068;28;20057;-64
2022/01/27 10:37:19;;;;;;;31.85;20.05;;;;;;;6.23;82.03;102327.91;5103192;28;20042;-64
2022/01/27 10:39:46;;;;;;;30.70;21.80;;;;;;;6.24;81.96;102321.34;5107661;28;20032;-64
2022/01/27 10:42:12;;;;;;;29.02;21.55;;;;;;;6.23;82.21;102319.63;5105421;28;20042;-64
2022/01/27 10:44:54;;;;;;;29.33;21.85;;;;;;;6.28;82.04;102325.44;5108102;28;20024;-64
2022/01/27 10:47:24;;;;;;;30.08;21.55;;;;;;;6.26;81.67;102317.34;5109920;28;20031;-64
2022/01/27 10:50:03;;;;;;;27.55;19.77;;;;;;;6.29;81.90;102321.66;5102829;28;20055;-64
2022/01/27 10:55:04;;;;;;;26.92;20.45;;;;;;;6.30;81.88;102326.97;5099599;28;20024;-64
2022/01/27 10:57:29;;;;;;;26.92;20.42;;;;;;;6.32;81.83;102332.28;5106546;28;20046;-64
2022/01/27 11:00:14;;;;;;;26.83;20.70;;;;;;;6.33;81.76;102326.59;5105372;28;20027;-64
2022/01/27 11:02:51;;;;;;;28.95;21.90;;;;;;;6.33;82.16;102328.50;5107498;28;20031;-64
2022/01/27 11:05:22;;;;;;;27.13;21.63;;;;;;;6.29;82.60;102327.16;5105364;28;20038;-64
2022/01/27 11:07:48;;;;;;;27.75;21.23;;;;;;;6.29;82.77;102321.66;5098810;28;20020;-66
2022/01/27 11:10:18;;;;;;;28.35;21.33;;;;;;;6.33;82.78;102320.22;5101388;28;20104;-66
2022/01/27 11:12:44;;;;;;;29.20;21.50;;;;;;;6.35;82.84;102302.44;5106669;28;20036;-66
2022/01/27 11:15:12;;;;;;;27.48;20.55;;;;;;;6.40;82.03;102301.84;5106504;28;20051;-66
2022/01/27 11:17:39;;;;;;;31.35;21.67;;;;;;;6.42;83.19;102308.03;5108236;28;20039;-67
2022/01/27 11:20:22;;;;;;;32.25;21.95;;;;;;;6.42;82.93;102312.72;5103164;28;20035;-66
2022/01/27 11:23:24;;;;;;;28.25;20.33;;;;;;;6.45;82.80;102307.69;5098717;28;20032;-65
2022/01/27 11:25:51;;;;;;;27.50;20.20;;;;;;;6.48;82.64;102315.53;5106747;28;20031;-66
2022/01/27 11:28:19;;;;;;;29.08;21.30;;;;;;;6.47;83.72;102297.28;5108707;28;20023;-66
2022/01/27 11:31:09;;;;;;;26.92;20.13;;;;;;;6.52;83.02;102291.19;5100780;28;20049;-67
2022/01/27 11:33:36;;;;;;;30.20;21.23;;;;;;;6.53;82.97;102284.66;5108110;28;20806;-65
2022/01/27 11:36:12;;;;;;;26.88;21.05;;;;;;;6.55;83.88;102291.66;5110664;27;20535;-66
2022/01/27 11:38:39;;;;;;;28.85;20.83;;;;;;;6.59;83.13;102278.34;5114109;27;20072;-66
2022/01/27 11:41:05;;;;;;;31.45;19.88;;;;;;;6.61;83.10;102277.13;5126643;27;20037;-66
2022/01/27 11:43:33;;;;;;;29.58;20.55;;;;;;;6.63;84.06;102280.53;5110823;27;20111;-66
2022/01/27 11:46:13;;;;;;;30.30;20.58;;;;;;;6.68;83.85;102276.34;5132075;27;20027;-67
2022/01/27 11:48:38;;;;;;;31.48;20.40;;;;;;;6.68;83.88;102265.31;5124485;27;20020;-67
2022/01/27 11:51:06;;;;;;;29.77;19.80;;;;;;;6.68;83.77;102271.69;5114096;27;20032;-65
2022/01/27 11:53:50;;;;;;;29.63;19.75;;;;;;;6.71;83.95;102270.44;5128529;27;20035;-65
2022/01/27 11:56:26;;;;;;;29.13;20.13;;;;;;;6.71;84.45;102270.44;5122292;27;20141;-66
2022/01/27 11:58:54;;;;;;;31.65;20.48;;;;;;;6.69;84.76;102269.78;5120369;27;20112;-65